Time;durP1;ratioP1;P1;durP2;ratioP2;P2;SDS_P1;SDS_P2;PMS_P1;PMS_P2;Temp;Humidity;BMP_temperature;BMP_pressure;BME280_temperature;BME280_humidity;BME280_pressure;Samples;Min_cycle;Max_cycle;Signal;HPM_P1;HPM_P2
2022/03/23 00:00:26;;;;;;;69.80;37.10;;;;;;;2.84;62.40;102182.83;3628273;80;98539;-81
2022/03/23 00:05:28;;;;;;;67.25;33.18;;;;;;;2.81;62.24;102181.23;3636151;81;97853;-80
2022/03/23 00:10:29;;;;;;;82.65;38.92;;;;;;;2.75;62.40;102178.28;3630995;80;99987;-81
2022/03/23 00:15:31;;;;;;;74.82;38.30;;;;;;;2.69;62.96;102173.41;3599239;80;98093;-80
2022/03/23 00:20:33;;;;;;;69.25;35.95;;;;;;;2.65;63.23;102175.63;3595386;80;98772;-81
2022/03/23 00:25:36;;;;;;;67.35;34.90;;;;;;;2.62;62.93;102170.20;3627691;80;99501;-80
2022/03/23 00:30:37;;;;;;;73.40;35.33;;;;;;;2.60;63.42;102171.58;3629540;80;98645;-80
2022/03/23 00:35:38;;;;;;;76.60;37.15;;;;;;;2.55;62.93;102162.09;3631608;81;98474;-80
2022/03/23 00:40:39;;;;;;;71.63;33.57;;;;;;;2.51;63.25;102148.83;3632461;81;98681;-80
2022/03/23 00:45:40;;;;;;;65.20;33.57;;;;;;;2.51;63.56;102155.63;3626977;81;98770;-80
2022/03/23 00:50:42;;;;;;;65.20;33.67;;;;;;;2.47;63.53;102140.97;3607451;80;98926;-80
2022/03/23 00:55:43;;;;;;;74.33;36.17;;;;;;;2.44;63.55;102141.52;3638278;80;99210;-80
2022/03/23 01:00:45;;;;;;;71.73;34.93;;;;;;;2.38;63.57;102141.28;3628024;81;98856;-79
2022/03/23 01:05:46;;;;;;;69.83;35.50;;;;;;;2.36;64.38;102133.41;3613863;81;25789;-80
2022/03/23 01:10:48;;;;;;;73.87;37.00;;;;;;;2.32;63.83;102129.65;3594268;80;98665;-81
2022/03/23 01:15:49;;;;;;;77.47;38.13;;;;;;;2.28;63.76;102124.50;3597360;81;98841;-80
2022/03/23 01:20:50;;;;;;;76.80;38.07;;;;;;;2.26;63.88;102125.88;3590783;81;99321;-80
2022/03/23 01:25:51;;;;;;;72.53;36.83;;;;;;;2.24;63.91;102119.92;3597169;81;97758;-80
2022/03/23 01:30:52;;;;;;;72.87;35.50;;;;;;;2.21;63.97;102121.83;3591357;81;99352;-80
2022/03/23 01:35:53;;;;;;;69.17;34.30;;;;;;;2.19;63.58;102111.80;3596849;81;26461;-82
2022/03/23 01:40:54;;;;;;;74.37;35.90;;;;;;;2.16;63.80;102117.24;3558923;82;99807;-80
2022/03/23 01:45:56;;;;;;;73.17;39.10;;;;;;;2.11;64.44;102113.73;3631010;80;98783;-81
2022/03/23 01:50:57;;;;;;;86.97;41.90;;;;;;;2.05;64.38;102102.62;3657290;79;98778;-80
2022/03/23 01:55:58;;;;;;;66.20;33.23;;;;;;;2.00;64.40;102107.55;3630776;80;98885;-80
2022/03/23 02:00:59;;;;;;;75.65;40.70;;;;;;;1.94;64.54;102105.13;3652768;80;99041;-80
2022/03/23 02:06:00;;;;;;;71.17;37.00;;;;;;;1.91;64.69;102098.92;3655829;79;26047;-80
2022/03/23 02:11:01;;;;;;;77.90;39.97;;;;;;;1.86;65.08;102095.66;3670968;78;98907;-81
2022/03/23 02:16:03;;;;;;;76.70;40.53;;;;;;;1.82;65.04;102089.19;3666267;79;98866;-81
2022/03/23 02:21:04;;;;;;;79.70;40.98;;;;;;;1.79;65.35;102087.55;3651998;78;98906;-81
2022/03/23 02:26:05;;;;;;;79.87;39.03;;;;;;;1.77;65.56;102077.53;3637010;78;98773;-81
2022/03/23 02:31:07;;;;;;;86.80;45.80;;;;;;;1.73;65.56;102083.23;3612846;79;99282;-82
2022/03/23 02:36:10;;;;;;;95.07;45.07;;;;;;;1.69;65.84;102081.63;3672716;79;25866;-81
2022/03/23 02:41:11;;;;;;;97.40;45.43;;;;;;;1.63;66.42;102077.84;3635220;80;99603;-80
2022/03/23 02:46:16;;;;;;;88.60;44.83;;;;;;;1.60;66.05;102079.77;3671444;78;99022;-80
2022/03/23 02:51:18;;;;;;;77.77;38.20;;;;;;;1.57;66.08;102078.42;3647292;79;98804;-81
2022/03/23 03:02:19;;;;;;;82.15;37.23;;;;;;;1.51;65.37;102075.47;3660357;79;98854;-80
2022/03/23 03:07:20;;;;;;;78.33;39.67;;;;;;;1.48;65.86;102067.87;3637712;80;98819;-81
2022/03/23 03:12:22;;;;;;;70.67;36.13;;;;;;;1.42;66.25;102074.96;3672939;79;26168;-80
2022/03/23 03:17:22;;;;;;;76.22;37.78;;;;;;;1.38;65.87;102067.89;3672426;79;98862;-80
2022/03/23 03:22:25;;;;;;;73.70;35.77;;;;;;;1.37;66.11;102064.92;3649492;80;98576;-80
2022/03/23 03:27:26;;;;;;;89.77;43.83;;;;;;;1.35;65.83;102065.75;3651231;80;99264;-80
2022/03/23 03:32:26;;;;;;;79.40;40.00;;;;;;;1.33;66.24;102064.41;3656657;79;99192;-80
2022/03/23 03:37:27;;;;;;;84.70;41.80;;;;;;;1.31;66.26;102066.03;3642612;79;99841;-81
2022/03/23 03:42:29;;;;;;;81.20;37.63;;;;;;;1.27;66.03;102063.59;3661338;79;26937;-80
2022/03/23 03:47:30;;;;;;;83.93;41.13;;;;;;;1.22;66.27;102070.37;3631161;79;98785;-81
2022/03/23 03:52:31;;;;;;;85.80;39.77;;;;;;;1.16;66.84;102071.48;3655163;80;98755;-81
2022/03/23 03:57:32;;;;;;;77.83;39.60;;;;;;;1.12;67.27;102077.73;3662634;80;99029;-82
2022/03/23 04:02:33;;;;;;;84.77;38.67;;;;;;;1.09;67.41;102076.95;3651326;79;98748;-81
2022/03/23 04:07:34;;;;;;;81.25;36.98;;;;;;;1.02;67.13;102075.86;3661287;80;98730;-80
2022/03/23 04:12:35;;;;;;;76.93;36.97;;;;;;;1.00;67.34;102075.31;3667659;80;26015;-80
2022/03/23 04:17:36;;;;;;;82.65;40.58;;;;;;;0.95;67.06;102073.16;3657945;79;98923;-80
2022/03/23 04:22:40;;;;;;;90.57;42.27;;;;;;;0.92;67.37;102079.94;3630058;80;98978;-81
2022/03/23 04:27:53;;;;;;;78.77;37.63;;;;;;;0.91;67.49;102078.33;3635156;79;99116;-81
2022/03/23 04:32:54;;;;;;;80.45;35.73;;;;;;;0.87;67.61;102088.61;3658098;79;99167;-80
2022/03/23 04:37:56;;;;;;;82.67;40.20;;;;;;;0.84;67.31;102075.61;3635142;80;99286;-80
2022/03/23 04:42:58;;;;;;;83.67;40.80;;;;;;;0.83;67.14;102079.42;3685892;80;98838;-80
2022/03/23 04:47:59;;;;;;;90.07;40.43;;;;;;;0.81;66.86;102081.04;3666055;79;98514;-80
2022/03/23 04:53:00;;;;;;;74.00;36.47;;;;;;;0.79;66.93;102074.27;3652236;80;98688;-80
2022/03/23 04:58:01;;;;;;;85.80;39.13;;;;;;;0.76;67.07;102078.86;3621601;79;98875;-81
2022/03/23 05:03:04;;;;;;;82.97;40.00;;;;;;;0.73;67.62;102080.21;3631175;80;98889;-81
2022/03/23 05:08:05;;;;;;;101.13;46.17;;;;;;;0.68;67.59;102078.89;3642718;80;98593;-78
2022/03/23 05:13:06;;;;;;;86.57;41.47;;;;;;;0.66;68.55;102077.53;3659039;79;99008;-78
2022/03/23 05:18:07;;;;;;;82.50;41.00;;;;;;;0.61;68.31;102072.11;3674246;79;98756;-78
2022/03/23 05:23:08;;;;;;;82.20;41.33;;;;;;;0.60;68.33;102075.34;3659934;80;98718;-81
2022/03/23 05:28:09;;;;;;;83.27;41.60;;;;;;;0.59;68.91;102074.26;3673747;78;98690;-79
2022/03/23 05:33:10;;;;;;;86.80;43.73;;;;;;;0.58;68.38;102080.23;3659110;79;98776;-79
2022/03/23 05:38:11;;;;;;;92.17;44.87;;;;;;;0.61;69.09;102072.11;3644321;80;98710;-78
2022/03/23 05:43:12;;;;;;;88.80;40.07;;;;;;;0.60;69.81;102073.20;3662180;78;98773;-79
2022/03/23 05:48:13;;;;;;;91.83;46.03;;;;;;;0.62;69.52;102067.75;3664414;80;98913;-78
2022/03/23 05:53:14;;;;;;;91.43;44.30;;;;;;;0.64;69.85;102068.84;3598907;81;98716;-78
2022/03/23 05:58:16;;;;;;;107.60;48.87;;;;;;;0.72;71.25;102073.73;3593461;79;99060;-78
2022/03/23 06:03:19;;;;;;;105.23;47.53;;;;;;;0.79;71.43;102070.20;3600144;82;99058;-79
2022/03/23 06:08:24;;;;;;;93.17;45.60;;;;;;;0.90;70.98;102071.28;3601904;80;99133;-80
2022/03/23 06:13:26;;;;;;;96.53;47.17;;;;;;;1.06;70.46;102059.86;3576545;80;98903;-79
2022/03/23 06:18:30;;;;;;;92.20;46.47;;;;;;;1.32;70.01;102070.92;3573479;82;98455;-80
2022/03/23 06:23:31;;;;;;;97.00;47.35;;;;;;;1.64;69.76;102061.30;3609743;79;97909;-79
2022/03/23 06:28:34;;;;;;;97.47;47.50;;;;;;;2.02;69.14;102068.70;3602858;81;98944;-79
2022/03/23 06:33:35;;;;;;;92.82;43.92;;;;;;;2.36;68.88;102076.91;3600801;81;99510;-80
2022/03/23 06:38:37;;;;;;;94.03;45.67;;;;;;;2.68;69.03;102075.86;3582707;81;98649;-80
2022/03/23 06:43:39;;;;;;;90.28;43.15;;;;;;;2.97;68.21;102080.22;3583464;79;97941;-79
2022/03/23 06:48:40;;;;;;;86.87;41.67;;;;;;;3.29;67.10;102079.61;3601669;80;98427;-79
2022/03/23 06:53:42;;;;;;;107.22;49.55;;;;;;;3.58;66.27;102079.83;3656234;79;98768;-79
2022/03/23 06:58:43;;;;;;;103.87;49.23;;;;;;;3.82;65.52;102083.33;3655000;79;99086;-80
2022/03/23 07:03:44;;;;;;;95.47;49.03;;;;;;;4.07;64.85;102084.36;3633885;80;99059;-79
2022/03/23 07:14:05;;;;;;;82.82;44.13;;;;;;;4.61;63.64;102078.36;3684100;79;97951;-79
2022/03/23 07:19:06;;;;;;;84.33;42.47;;;;;;;4.91;63.01;102082.76;3678997;79;98941;-79
2022/03/23 07:24:07;;;;;;;75.27;38.83;;;;;;;5.25;62.34;102080.49;3686588;79;33022;-80
2022/03/23 07:29:10;;;;;;;74.33;37.83;;;;;;;5.72;61.36;102083.43;3676604;79;98632;-80
2022/03/23 07:34:13;;;;;;;72.65;39.58;;;;;;;6.10;60.25;102081.52;3668965;78;99200;-79
2022/03/23 07:39:20;;;;;;;67.57;37.57;;;;;;;6.39;59.66;102077.83;3645627;80;99026;-79
2022/03/23 07:44:21;;;;;;;73.62;38.28;;;;;;;6.58;59.52;102075.75;3672556;79;98810;-79
2022/03/23 07:49:23;;;;;;;69.07;38.60;;;;;;;6.78;58.89;102073.08;3619085;79;98509;-80
2022/03/23 07:54:25;;;;;;;78.30;40.17;;;;;;;7.07;58.40;102075.59;3618352;81;26541;-79
2022/03/23 07:59:26;;;;;;;71.65;39.13;;;;;;;7.44;57.79;102067.48;3601989;80;99021;-78
2022/03/23 08:04:30;;;;;;;70.67;39.23;;;;;;;7.73;56.75;102068.55;3626082;80;98691;-79
2022/03/23 08:09:31;;;;;;;72.40;37.07;;;;;;;8.10;55.68;102062.50;3616710;80;98750;-79
2022/03/23 08:14:34;;;;;;;69.27;37.88;;;;;;;8.48;55.02;102051.17;3612104;81;98859;-79
2022/03/23 08:19:35;;;;;;;62.67;35.60;;;;;;;8.74;54.87;102050.59;3619409;79;98512;-79
2022/03/23 08:24:38;;;;;;;73.20;38.70;;;;;;;9.07;53.76;102052.20;3624185;80;32840;-79
2022/03/23 08:29:39;;;;;;;72.47;36.05;;;;;;;9.38;53.97;102050.79;3620680;80;98601;-79
2022/03/23 08:34:40;;;;;;;62.23;36.67;;;;;;;9.75;53.72;102047.22;3620185;80;97973;-79
2022/03/23 08:39:45;;;;;;;67.60;35.60;;;;;;;10.12;52.50;102050.50;3608558;80;98947;-78
2022/03/23 08:44:46;;;;;;;62.08;36.17;;;;;;;10.55;51.91;102044.63;3616104;80;98276;-79
2022/03/23 08:49:48;;;;;;;59.27;35.33;;;;;;;10.91;51.37;102044.78;3618360;80;99092;-79
2022/03/23 08:54:49;;;;;;;62.80;36.63;;;;;;;11.32;50.63;102041.86;3679170;78;98289;-78
2022/03/23 08:59:50;;;;;;;61.65;35.68;;;;;;;11.87;50.88;102037.98;3676722;78;99019;-79
2022/03/23 09:04:51;;;;;;;61.90;37.00;;;;;;;12.63;51.04;102024.89;3681525;79;99002;-79
2022/03/23 09:09:52;;;;;;;62.53;37.23;;;;;;;14.58;49.29;102022.03;3672335;79;99045;-78
2022/03/23 09:14:55;;;;;;;62.20;36.73;;;;;;;14.58;49.29;102022.03;3691212;78;99018;-79
2022/03/23 09:19:56;;;;;;;48.43;31.10;;;;;;;15.65;48.57;102023.59;3693760;80;99203;-79
2022/03/23 09:24:56;;;;;;;46.80;28.87;;;;;;;16.93;47.27;102027.92;3691662;79;99243;-79
2022/03/23 09:29:57;;;;;;;46.33;30.20;;;;;;;17.94;44.36;102021.66;3622041;79;99408;-78
2022/03/23 09:34:59;;;;;;;52.97;34.53;;;;;;;18.93;42.82;102012.55;3595206;80;99013;-79
2022/03/23 09:40:01;;;;;;;49.30;31.63;;;;;;;19.86;42.04;102014.39;3658710;79;99497;-80
2022/03/23 09:45:02;;;;;;;42.10;29.30;;;;;;;20.53;39.77;102010.22;3684352;78;99685;-79
2022/03/23 09:50:05;;;;;;;42.10;27.20;;;;;;;21.35;38.90;102004.33;3692266;79;25965;-79
2022/03/23 09:55:08;;;;;;;41.55;28.30;;;;;;;21.93;36.65;102002.23;3693019;79;99591;-77
2022/03/23 10:00:10;;;;;;;45.90;29.65;;;;;;;22.44;36.85;101997.84;3701764;78;99019;-77
2022/03/23 10:05:29;;;;;;;38.35;24.35;;;;;;;22.96;34.48;101989.31;3680539;79;98918;-76
2022/03/23 10:10:58;;;;;;;32.53;23.85;;;;;;;23.14;33.32;101987.61;3685479;78;99567;-76
2022/03/23 10:16:57;;;;;;;31.75;21.37;;;;;;;23.70;32.39;101987.48;3684365;79;100845;-78
2022/03/23 10:22:14;;;;;;;35.63;24.98;;;;;;;23.92;30.63;101983.08;3686421;79;99442;-77
2022/03/23 10:27:23;;;;;;;32.42;22.50;;;;;;;23.95;29.56;101972.39;3674785;78;99305;-78
2022/03/23 10:32:22;;;;;;;38.92;25.68;;;;;;;24.28;30.52;101973.33;3665780;78;99245;-77
2022/03/23 10:37:31;;;;;;;36.83;23.62;;;;;;;24.52;29.92;101965.76;3685556;78;26531;-78
2022/03/23 10:42:36;;;;;;;27.10;17.60;;;;;;;24.87;29.44;101964.20;3684964;78;99360;-78
2022/03/23 10:47:39;;;;;;;38.53;20.57;;;;;;;25.10;27.90;101960.62;3695848;78;99004;-78
2022/03/23 10:52:54;;;;;;;32.80;19.92;;;;;;;24.98;27.35;101952.87;3688719;79;99140;-79
2022/03/23 10:58:07;;;;;;;35.80;22.42;;;;;;;24.75;27.04;101950.17;3681994;79;99229;-78
2022/03/23 11:03:10;;;;;;;32.53;20.70;;;;;;;24.55;25.89;101939.56;3673576;78;99299;-79
2022/03/23 11:08:20;;;;;;;27.77;20.12;;;;;;;24.34;26.34;101939.22;3690478;78;99296;-77
2022/03/23 11:18:47;;;;;;;28.47;18.67;;;;;;;24.39;25.40;101920.41;3679388;78;98883;-78
2022/03/23 11:23:48;;;;;;;24.02;17.10;;;;;;;24.53;25.88;101916.66;3680987;78;99531;-77
2022/03/23 11:28:52;;;;;;;26.57;18.45;;;;;;;24.63;26.02;101914.25;3694389;78;99182;-78
2022/03/23 11:33:55;;;;;;;24.40;18.27;;;;;;;24.58;25.57;101904.92;3667158;79;99344;-78
2022/03/23 11:38:59;;;;;;;28.77;19.73;;;;;;;24.49;25.10;101907.53;3688169;79;99190;-78
2022/03/23 11:43:59;;;;;;;46.58;18.35;;;;;;;24.55;25.23;101893.71;3680993;78;99095;-78
2022/03/23 11:49:36;;;;;;;24.77;17.32;;;;;;;24.52;24.37;101888.34;3698339;78;26140;-77
2022/03/23 12:00:26;;;;;;;23.07;15.50;;;;;;;23.95;23.74;101873.95;3665601;79;99068;-77
2022/03/23 12:05:30;;;;;;;21.20;12.07;;;;;;;23.58;24.53;101866.42;3692689;78;98996;-79
2022/03/23 12:10:33;;;;;;;22.50;14.05;;;;;;;23.25;24.78;101862.64;3669383;77;99200;-78
2022/03/23 12:15:37;;;;;;;18.70;11.90;;;;;;;23.20;23.86;101846.28;3672189;78;99126;-78
2022/03/23 12:20:41;;;;;;;16.82;11.33;;;;;;;23.16;23.46;101848.95;3649062;79;99228;-78
2022/03/23 12:26:12;;;;;;;18.20;10.98;;;;;;;23.16;22.97;101842.70;3637459;79;98914;-79
2022/03/23 12:31:15;;;;;;;16.50;11.12;;;;;;;22.80;22.45;101833.92;3669152;78;98777;-79
2022/03/23 12:36:22;;;;;;;16.12;10.82;;;;;;;22.49;22.85;101826.21;3674234;78;99326;-77
2022/03/23 12:41:23;;;;;;;19.10;11.38;;;;;;;22.41;22.62;101816.89;3661372;78;99161;-78
2022/03/23 12:46:26;;;;;;;17.87;10.75;;;;;;;22.29;22.89;101814.68;3651788;80;99155;-77
2022/03/23 13:02:29;;;;;;;18.60;10.53;;;;;;;21.71;21.74;101794.86;3661941;79;99184;-78
2022/03/23 13:07:36;;;;;;;19.62;11.45;;;;;;;21.51;23.00;101797.27;3681670;79;98841;-79
2022/03/23 13:12:42;;;;;;;17.82;11.00;;;;;;;21.39;24.07;101792.21;3667375;79;98984;-79
2022/03/23 13:17:44;;;;;;;19.82;11.70;;;;;;;21.30;23.17;101782.91;3670633;79;99264;-79
2022/03/23 13:22:46;;;;;;;20.30;11.97;;;;;;;21.22;22.53;101778.61;3648409;80;99543;-79
2022/03/23 13:27:48;;;;;;;18.02;11.43;;;;;;;21.00;22.85;101776.44;3666327;79;99312;-79
2022/03/23 13:32:50;;;;;;;17.12;11.90;;;;;;;20.83;23.17;101769.80;3672966;79;99546;-79
2022/03/23 13:38:00;;;;;;;20.20;12.00;;;;;;;20.84;23.72;101767.18;3679618;79;26339;-79
2022/03/23 13:43:20;;;;;;;17.95;11.30;;;;;;;20.70;23.73;101760.92;3667323;79;99037;-78
2022/03/23 13:48:21;;;;;;;16.50;10.32;;;;;;;20.57;23.56;101752.83;3673140;79;98959;-78
2022/03/23 13:53:22;;;;;;;21.30;10.33;;;;;;;20.37;25.14;101751.79;3675057;79;99208;-78
2022/03/23 13:58:26;;;;;;;17.40;11.87;;;;;;;20.28;24.69;101747.29;3672491;78;99204;-78
2022/03/23 14:03:35;;;;;;;15.55;10.03;;;;;;;20.21;25.07;101749.52;3677008;78;99104;-78
2022/03/23 14:08:40;;;;;;;17.35;11.57;;;;;;;20.09;25.63;101740.23;3698141;78;99120;-78
2022/03/23 14:13:48;;;;;;;18.70;11.70;;;;;;;19.99;25.59;101732.67;3693928;79;98885;-78
2022/03/23 14:18:49;;;;;;;15.95;10.82;;;;;;;19.77;26.17;101724.23;3684867;78;99078;-79
2022/03/23 14:23:51;;;;;;;17.33;11.80;;;;;;;19.66;25.69;101716.52;3644689;80;99399;-78
2022/03/23 14:28:52;;;;;;;15.68;9.55;;;;;;;19.60;25.76;101710.36;3670949;79;99102;-79
2022/03/23 14:34:09;;;;;;;18.07;11.80;;;;;;;19.51;26.76;101707.23;3682342;78;99031;-79
2022/03/23 14:39:20;;;;;;;;;;;;;;;19.44;26.02;101706.66;3695815;79;99111;-78
2022/03/23 14:44:38;;;;;;;20.05;13.38;;;;;;;19.30;27.87;101710.90;3694538;78;84879;-79
2022/03/23 14:49:43;;;;;;;20.95;13.80;;;;;;;19.11;26.42;101702.98;3696890;79;98918;-80
2022/03/23 14:54:44;;;;;;;20.75;12.25;;;;;;;19.01;25.56;101696.83;3694964;78;99139;-79
2022/03/23 14:59:51;;;;;;;19.20;12.23;;;;;;;18.87;26.92;101698.88;3673247;78;99257;-79
2022/03/23 15:04:48;;;;;;;21.73;15.13;;;;;;;18.79;27.59;101693.09;3671755;79;99535;-79
2022/03/23 15:15:10;;;;;;;24.63;15.50;;;;;;;18.50;27.51;101683.20;3675338;78;99095;-79
2022/03/23 15:20:11;;;;;;;22.83;15.27;;;;;;;18.32;28.90;101684.60;3675048;78;26445;-79
2022/03/23 15:25:12;;;;;;;24.97;14.67;;;;;;;18.23;29.67;101682.00;3660997;80;98927;-79
2022/03/23 15:30:14;;;;;;;20.10;12.90;;;;;;;18.14;30.24;101679.61;3661247;79;98982;-79
2022/03/23 15:35:15;;;;;;;21.53;13.97;;;;;;;17.98;29.43;101679.81;3684716;78;99145;-79
2022/03/23 15:40:16;;;;;;;18.40;12.27;;;;;;;17.82;29.46;101677.39;3690967;79;99189;-78
2022/03/23 15:45:18;;;;;;;26.00;15.63;;;;;;;17.73;30.53;101673.41;3664726;79;99181;-79
2022/03/23 15:50:19;;;;;;;26.43;16.33;;;;;;;17.56;30.19;101677.73;3644613;78;25808;-80
2022/03/23 15:55:20;;;;;;;21.10;13.03;;;;;;;17.42;30.33;101679.68;3685238;79;99188;-81
2022/03/23 16:00:21;;;;;;;21.30;13.53;;;;;;;17.31;31.04;101674.64;3683298;79;99016;-80
2022/03/23 16:05:23;;;;;;;23.37;13.77;;;;;;;17.17;31.26;101667.66;3665641;79;99817;-80
2022/03/23 16:10:26;;;;;;;20.73;13.37;;;;;;;17.03;31.95;101665.61;3679519;78;99108;-81
2022/03/23 16:15:27;;;;;;;27.95;17.37;;;;;;;16.94;33.14;101671.33;3660181;79;99177;-80
2022/03/23 16:20:31;;;;;;;30.70;17.00;;;;;;;16.76;32.75;101666.25;3683999;78;26080;-80
2022/03/23 16:25:33;;;;;;;27.07;15.35;;;;;;;16.59;31.58;101662.20;3655352;79;98897;-79
2022/03/23 16:30:35;;;;;;;23.83;14.93;;;;;;;16.45;33.58;101657.92;3673513;78;99045;-79
2022/03/23 16:35:37;;;;;;;21.50;13.27;;;;;;;16.32;33.23;101666.34;3673298;78;99123;-79
2022/03/23 16:40:38;;;;;;;24.25;13.38;;;;;;;16.21;36.03;101674.37;3643039;78;98854;-79
2022/03/23 16:45:41;;;;;;;29.02;16.37;;;;;;;16.11;37.06;101669.53;3666345;79;99086;-79
2022/03/23 16:50:42;;;;;;;30.32;15.32;;;;;;;15.93;37.01;101668.02;3682726;79;26678;-79
2022/03/23 16:55:43;;;;;;;25.20;14.20;;;;;;;15.71;38.09;101668.99;3624962;79;98996;-80
2022/03/23 17:00:44;;;;;;;29.87;18.27;;;;;;;15.55;38.54;101668.43;3641101;80;99015;-79
2022/03/23 17:16:25;;;;;;;37.00;18.98;;;;;;;14.97;39.31;101677.01;3659025;80;99149;-80
2022/03/23 17:21:26;;;;;;;30.85;18.57;;;;;;;14.74;38.20;101677.69;3675125;79;99207;-80
2022/03/23 17:26:27;;;;;;;31.73;18.30;;;;;;;14.42;38.39;101679.77;3643252;80;28149;-80
2022/03/23 17:31:28;;;;;;;28.00;17.13;;;;;;;14.18;40.55;101691.23;3666677;78;99037;-80
2022/03/23 17:36:29;;;;;;;34.23;20.30;;;;;;;13.91;40.50;101696.50;3672216;80;98930;-80
2022/03/23 17:41:35;;;;;;;32.50;19.10;;;;;;;13.65;41.39;101698.60;3647346;78;99137;-80
2022/03/23 17:46:35;;;;;;;28.42;16.80;;;;;;;13.36;40.99;101696.43;3630149;78;98996;-81
2022/03/23 17:51:37;;;;;;;35.83;20.83;;;;;;;13.18;43.41;101696.66;3642207;79;98281;-83
2022/03/23 17:56:41;;;;;;;32.97;19.63;;;;;;;12.99;43.79;101698.05;3649012;80;32957;-80
2022/03/23 18:01:42;;;;;;;36.85;22.50;;;;;;;12.53;45.18;101685.13;3663923;78;99122;-81
2022/03/23 18:06:45;;;;;;;41.63;26.62;;;;;;;12.53;45.18;101685.13;3656764;79;98992;-82
2022/03/23 18:11:46;;;;;;;54.67;33.63;;;;;;;12.08;45.72;101708.86;3649283;79;99422;-81
2022/03/23 18:16:49;;;;;;;60.53;35.03;;;;;;;12.08;45.72;101708.86;3652139;78;99046;-81
2022/03/23 18:21:50;;;;;;;59.50;34.73;;;;;;;11.84;46.05;101711.79;3662082;80;99163;-80
2022/03/23 18:26:53;;;;;;;51.97;32.87;;;;;;;11.65;46.79;101711.66;3666093;80;99198;-81
2022/03/23 18:31:54;;;;;;;68.92;38.02;;;;;;;11.43;47.22;101718.53;3656085;79;99557;-80
2022/03/23 18:36:55;;;;;;;74.43;41.37;;;;;;;11.20;47.06;101716.66;3642000;80;99098;-81
2022/03/23 18:41:57;;;;;;;77.20;42.67;;;;;;;10.88;46.61;101725.37;3654766;79;99134;-80
2022/03/23 18:47:06;;;;;;;76.63;46.10;;;;;;;10.67;47.02;101726.65;3673145;78;99402;-80
2022/03/23 18:52:08;;;;;;;72.97;40.67;;;;;;;10.54;47.83;101725.88;3664322;79;99397;-81
2022/03/23 18:57:09;;;;;;;64.67;36.60;;;;;;;10.40;47.52;101724.04;3650716;79;99140;-81
2022/03/23 19:02:10;;;;;;;58.45;30.55;;;;;;;10.18;47.85;101730.00;3663069;78;98817;-81
2022/03/23 19:07:13;;;;;;;43.33;23.83;;;;;;;9.99;46.49;101745.41;3675070;79;99310;-81
2022/03/23 19:12:14;;;;;;;39.23;20.80;;;;;;;9.78;45.97;101748.23;3683451;79;98883;-81
2022/03/23 19:17:16;;;;;;;41.30;19.40;;;;;;;9.62;45.39;101748.64;3681483;78;98861;-80
2022/03/23 19:22:17;;;;;;;46.00;21.30;;;;;;;9.55;45.11;101753.86;3665264;79;98852;-80
2022/03/23 19:27:18;;;;;;;32.47;17.47;;;;;;;9.53;44.30;101749.28;3665419;77;98843;-82
2022/03/23 19:32:21;;;;;;;32.00;15.73;;;;;;;9.56;43.60;101753.30;3636836;79;98725;-81
2022/03/23 19:37:22;;;;;;;30.03;16.13;;;;;;;9.54;43.40;101727.53;3663298;79;98751;-81
2022/03/23 19:42:26;;;;;;;33.70;16.53;;;;;;;9.65;43.47;101752.66;3646924;78;98713;-81
2022/03/23 19:47:26;;;;;;;31.60;15.90;;;;;;;9.58;43.44;101753.77;3680301;77;98979;-82
2022/03/23 19:52:29;;;;;;;27.33;13.37;;;;;;;9.48;43.82;101755.58;3644100;79;98858;-80
2022/03/23 19:57:32;;;;;;;27.82;15.85;;;;;;;9.43;43.14;101764.81;3688108;78;98810;-81
2022/03/23 20:02:34;;;;;;;27.52;14.15;;;;;;;9.32;43.51;101764.20;3669937;79;98433;-81
2022/03/23 20:07:36;;;;;;;29.00;14.97;;;;;;;9.25;43.53;101766.11;3674775;79;98481;-80
2022/03/23 20:12:37;;;;;;;23.25;13.25;;;;;;;9.17;43.61;101766.97;3673285;78;98897;-81
2022/03/23 20:17:42;;;;;;;28.43;13.90;;;;;;;9.10;43.81;101768.08;3682263;79;98854;-82
2022/03/23 20:22:43;;;;;;;25.80;13.07;;;;;;;9.03;43.61;101769.19;3662859;79;99436;-81
2022/03/23 20:27:46;;;;;;;27.60;12.77;;;;;;;8.99;43.98;101772.36;3694564;77;98823;-81
2022/03/23 20:32:47;;;;;;;26.95;13.60;;;;;;;8.91;43.99;101773.23;3668024;80;99392;-80
2022/03/23 20:37:48;;;;;;;37.93;14.50;;;;;;;8.82;44.01;101774.41;3691907;80;33121;-81
2022/03/23 20:42:50;;;;;;;29.87;15.17;;;;;;;8.72;44.07;101780.30;3673479;79;98731;-80
2022/03/23 20:47:52;;;;;;;32.47;16.77;;;;;;;8.64;44.49;101786.63;3676353;79;98844;-82
2022/03/23 20:52:56;;;;;;;35.60;16.23;;;;;;;8.56;44.38;101789.65;3643955;79;98810;-80
2022/03/23 20:57:57;;;;;;;34.10;17.10;;;;;;;8.50;44.67;101786.07;3670358;78;99309;-80
2022/03/23 21:03:01;;;;;;;39.83;18.35;;;;;;;8.46;44.57;101795.50;3669439;79;98741;-80
2022/03/23 21:08:15;;;;;;;41.73;20.20;;;;;;;8.43;44.79;101795.36;3668308;78;26746;-80
2022/03/23 21:13:08;;;;;;;40.08;20.57;;;;;;;8.37;45.15;101792.56;3658143;78;98683;-81
2022/03/23 21:18:14;;;;;;;39.93;22.47;;;;;;;8.31;45.24;101802.11;3657814;80;98629;-81
2022/03/23 21:23:16;;;;;;;40.23;20.43;;;;;;;8.25;45.51;101812.48;3666965;78;98820;-80
2022/03/23 21:28:18;;;;;;;39.50;21.10;;;;;;;8.18;45.83;101810.75;3650139;79;98936;-79
2022/03/23 21:33:22;;;;;;;48.83;24.73;;;;;;;8.11;46.32;101804.97;3654137;79;99169;-80
2022/03/23 21:38:25;;;;;;;39.78;22.07;;;;;;;8.06;46.93;101807.07;3694728;78;25923;-81
2022/03/23 21:43:27;;;;;;;44.53;21.97;;;;;;;8.01;47.51;101811.38;3646316;79;98698;-79
2022/03/23 21:48:27;;;;;;;41.03;21.77;;;;;;;7.93;47.92;101812.19;3674565;78;98768;-78
2022/03/23 21:53:28;;;;;;;44.77;22.23;;;;;;;7.81;48.67;101817.54;3668324;77;99307;-79
2022/03/23 21:58:29;;;;;;;43.07;21.60;;;;;;;7.70;49.11;101813.52;3651886;78;98848;-79
2022/03/23 22:03:30;;;;;;;50.77;26.27;;;;;;;7.61;49.68;101807.23;3664153;79;99152;-79
2022/03/23 22:08:31;;;;;;;50.27;24.80;;;;;;;7.49;50.53;101812.56;3649761;80;34058;-80
2022/03/23 22:13:32;;;;;;;50.53;23.93;;;;;;;7.36;51.27;101817.07;3670487;78;98597;-80
2022/03/23 22:18:33;;;;;;;49.10;23.45;;;;;;;7.27;51.88;101819.57;3679635;77;99065;-80
2022/03/23 22:23:35;;;;;;;51.23;24.20;;;;;;;7.14;52.58;101814.47;3647948;79;99253;-80
2022/03/23 22:28:38;;;;;;;52.77;25.83;;;;;;;7.03;52.57;101818.65;3678247;78;98762;-81
2022/03/23 22:33:41;;;;;;;42.07;23.37;;;;;;;6.95;53.01;101820.82;3668294;79;99183;-79
2022/03/23 22:38:42;;;;;;;45.00;22.60;;;;;;;6.90;53.31;101821.52;3688731;78;26486;-80
2022/03/23 22:43:45;;;;;;;53.20;26.97;;;;;;;6.80;53.42;101820.44;3657496;79;98921;-80
2022/03/23 22:48:46;;;;;;;45.97;22.63;;;;;;;6.71;53.67;101819.63;3652992;77;99119;-80
2022/03/23 22:53:48;;;;;;;46.40;23.40;;;;;;;6.65;53.77;101827.16;3672035;78;98776;-78
2022/03/23 22:58:49;;;;;;;54.93;25.90;;;;;;;6.55;53.82;101829.39;3697942;79;99157;-79
2022/03/23 23:03:57;;;;;;;48.13;24.03;;;;;;;6.41;54.46;101828.67;3695760;79;98840;-80
2022/03/23 23:08:55;;;;;;;50.47;24.23;;;;;;;6.28;54.87;101839.16;3698053;78;107353;-80
2022/03/23 23:13:55;;;;;;;47.13;22.87;;;;;;;6.13;55.26;101829.98;3681504;80;98902;-80
2022/03/23 23:18:57;;;;;;;43.63;22.17;;;;;;;5.99;55.56;101831.43;3679376;78;98546;-80
2022/03/23 23:23:58;;;;;;;45.40;23.13;;;;;;;5.82;56.00;101832.69;3665148;79;98846;-80
2022/03/23 23:29:05;;;;;;;44.20;22.93;;;;;;;5.66;56.66;101824.59;3670332;78;98922;-80
2022/03/23 23:34:06;;;;;;;47.13;23.33;;;;;;;5.41;56.99;101832.00;3654284;79;99047;-79
2022/03/23 23:39:07;;;;;;;49.00;23.97;;;;;;;5.24;57.49;101823.66;3650457;80;98912;-79
2022/03/23 23:44:16;;;;;;;48.80;24.47;;;;;;;5.08;57.73;101830.58;3620394;80;98449;-79
2022/03/23 23:49:19;;;;;;;46.63;24.23;;;;;;;4.97;58.24;101825.09;3609839;78;98593;-80
2022/03/23 23:54:19;;;;;;;48.70;22.87;;;;;;;4.86;58.70;101833.81;3623234;80;98669;-80